Terminal Aerodrome Forecast
Issued by NWS

Home | Current Version | Previous Version | Text Only | Print | Product List | Glossary On
Versions: 1 2 3 4 5 6 7 8 9 10 11 12 13 14 15 16 17 18 19 20
000
FTUS41 KCLE 210300 AAA
TAFFDY
TAF AMD
KFDY 210325Z 2103/2124 23015G22KT P6SM SCT045 BKN070
     FM211400 23020G30KT P6SM SCT035
     FM211600 25025G38KT P6SM BKN060
     FM212300 25015G22KT P6SM BKN080=

USA.gov is the U.S. government's official web portal to all federal, state and local government web resources and services.